sensor_id;sensor_type;location;lat;lon;timestamp;pressure;altitude;pressure_sealevel;temperature;humidity
64679;BME280;51094;53.864;27.676;2024-02-15T00:01:42;99989.63;;;1.39;72.83
64679;BME280;51094;53.864;27.676;2024-02-15T00:04:12;100039.91;;;1.83;72.97
64679;BME280;51094;53.864;27.676;2024-02-15T00:06:39;100022.25;;;1.71;73.13
64679;BME280;51094;53.864;27.676;2024-02-15T00:09:09;100025.63;;;1.73;72.62
64679;BME280;51094;53.864;27.676;2024-02-15T00:11:36;100016.09;;;1.78;73.11
64679;BME280;51094;53.864;27.676;2024-02-15T00:14:09;100033.09;;;1.82;72.15
64679;BME280;51094;53.864;27.676;2024-02-15T00:16:37;100024.00;;;1.71;72.09
64679;BME280;51094;53.864;27.676;2024-02-15T00:19:04;100034.38;;;1.64;71.74
64679;BME280;51094;53.864;27.676;2024-02-15T00:21:34;100054.53;;;1.80;73.12
64679;BME280;51094;53.864;27.676;2024-02-15T00:24:02;100025.72;;;1.70;72.92
64679;BME280;51094;53.864;27.676;2024-02-15T00:26:31;100013.75;;;1.69;72.60
64679;BME280;51094;53.864;27.676;2024-02-15T00:29:02;100009.63;;;1.63;72.50
64679;BME280;51094;53.864;27.676;2024-02-15T00:31:34;100040.69;;;1.87;72.83
64679;BME280;51094;53.864;27.676;2024-02-15T00:34:07;100037.94;;;1.94;72.99
64679;BME280;51094;53.864;27.676;2024-02-15T00:36:42;100031.41;;;1.81;72.58
64679;BME280;51094;53.864;27.676;2024-02-15T00:39:11;100090.88;;;1.98;73.29
64679;BME280;51094;53.864;27.676;2024-02-15T00:41:41;100050.59;;;2.02;72.35
64679;BME280;51094;53.864;27.676;2024-02-15T00:44:09;100057.72;;;1.89;72.05
64679;BME280;51094;53.864;27.676;2024-02-15T00:46:40;100050.19;;;1.82;72.75
64679;BME280;51094;53.864;27.676;2024-02-15T00:49:09;100039.94;;;1.82;72.60
64679;BME280;51094;53.864;27.676;2024-02-15T00:51:37;100044.28;;;1.78;72.44
64679;BME280;51094;53.864;27.676;2024-02-15T00:54:04;100060.38;;;1.86;71.84
64679;BME280;51094;53.864;27.676;2024-02-15T00:56:34;100016.78;;;1.48;72.67
64679;BME280;51094;53.864;27.676;2024-02-15T00:59:02;100054.75;;;1.71;72.13
64679;BME280;51094;53.864;27.676;2024-02-15T01:01:31;100067.38;;;1.78;72.31
64679;BME280;51094;53.864;27.676;2024-02-15T01:03:59;100069.00;;;1.82;72.75
64679;BME280;51094;53.864;27.676;2024-02-15T01:06:29;100045.34;;;1.71;72.24
64679;BME280;51094;53.864;27.676;2024-02-15T01:08:56;100068.94;;;1.85;72.84
64679;BME280;51094;53.864;27.676;2024-02-15T01:11:25;100074.97;;;1.83;72.47
64679;BME280;51094;53.864;27.676;2024-02-15T01:13:55;100025.47;;;1.41;72.10
64679;BME280;51094;53.864;27.676;2024-02-15T01:16:25;100075.97;;;1.76;72.48
64679;BME280;51094;53.864;27.676;2024-02-15T01:18:52;100074.25;;;1.76;72.65
64679;BME280;51094;53.864;27.676;2024-02-15T01:21:22;100078.25;;;1.89;73.04
64679;BME280;51094;53.864;27.676;2024-02-15T01:23:51;100082.47;;;1.92;72.40
64679;BME280;51094;53.864;27.676;2024-02-15T01:26:23;99943.31;;;1.10;72.65
64679;BME280;51094;53.864;27.676;2024-02-15T01:28:53;100073.75;;;1.99;72.58
64679;BME280;51094;53.864;27.676;2024-02-15T01:31:21;100071.28;;;1.94;72.33
64679;BME280;51094;53.864;27.676;2024-02-15T01:33:48;100077.38;;;1.90;72.08
64679;BME280;51094;53.864;27.676;2024-02-15T01:36:19;100070.63;;;1.86;72.08
64679;BME280;51094;53.864;27.676;2024-02-15T01:38:52;100064.72;;;1.83;72.21
64679;BME280;51094;53.864;27.676;2024-02-15T01:41:24;100079.13;;;1.88;72.48
64679;BME280;51094;53.864;27.676;2024-02-15T01:43:54;100063.88;;;1.82;72.32
64679;BME280;51094;53.864;27.676;2024-02-15T01:46:24;100048.66;;;1.75;72.47
64679;BME280;51094;53.864;27.676;2024-02-15T01:48:51;99888.41;;;0.83;71.73
64679;BME280;51094;53.864;27.676;2024-02-15T01:51:19;100066.22;;;1.91;72.06
64679;BME280;51094;53.864;27.676;2024-02-15T01:53:46;100074.75;;;1.93;71.85
64679;BME280;51094;53.864;27.676;2024-02-15T01:56:15;100051.72;;;1.52;72.48
64679;BME280;51094;53.864;27.676;2024-02-15T01:58:46;100050.16;;;1.83;71.71
64679;BME280;51094;53.864;27.676;2024-02-15T02:01:14;100054.75;;;1.71;71.38
64679;BME280;51094;53.864;27.676;2024-02-15T02:03:44;99903.06;;;0.76;71.67
64679;BME280;51094;53.864;27.676;2024-02-15T02:06:12;100067.44;;;1.75;72.23
64679;BME280;51094;53.864;27.676;2024-02-15T02:08:39;100070.00;;;1.75;71.96
64679;BME280;51094;53.864;27.676;2024-02-15T02:11:10;100057.44;;;1.64;72.11
64679;BME280;51094;53.864;27.676;2024-02-15T02:13:40;100065.72;;;1.76;72.16
64679;BME280;51094;53.864;27.676;2024-02-15T02:16:29;100075.88;;;1.80;72.09
64679;BME280;51094;53.864;27.676;2024-02-15T02:19:02;100030.53;;;1.44;71.77
64679;BME280;51094;53.864;27.676;2024-02-15T02:21:39;100076.69;;;1.82;71.94
64679;BME280;51094;53.864;27.676;2024-02-15T02:24:13;100075.06;;;1.78;72.28
64679;BME280;51094;53.864;27.676;2024-02-15T02:26:43;100061.53;;;1.73;72.40
64679;BME280;51094;53.864;27.676;2024-02-15T02:29:11;100057.13;;;1.78;72.62
64679;BME280;51094;53.864;27.676;2024-02-15T02:31:39;99993.03;;;1.40;72.50
64679;BME280;51094;53.864;27.676;2024-02-15T02:34:07;100077.28;;;1.95;72.60
64679;BME280;51094;53.864;27.676;2024-02-15T02:36:35;100063.03;;;1.82;71.96
64679;BME280;51094;53.864;27.676;2024-02-15T02:39:03;100080.19;;;1.78;71.73
64679;BME280;51094;53.864;27.676;2024-02-15T02:41:30;100081.25;;;1.70;71.93
64679;BME280;51094;53.864;27.676;2024-02-15T02:43:57;100083.81;;;1.71;72.14
64679;BME280;51094;53.864;27.676;2024-02-15T02:46:42;100091.34;;;1.77;72.29
64679;BME280;51094;53.864;27.676;2024-02-15T02:49:10;100051.66;;;1.55;72.82
64679;BME280;51094;53.864;27.676;2024-02-15T02:51:37;100093.66;;;1.88;72.68
64679;BME280;51094;53.864;27.676;2024-02-15T02:54:04;100080.88;;;1.86;72.37
64679;BME280;51094;53.864;27.676;2024-02-15T02:56:33;100076.63;;;1.85;72.90
64679;BME280;51094;53.864;27.676;2024-02-15T02:59:03;100015.81;;;1.53;72.65
64679;BME280;51094;53.864;27.676;2024-02-15T03:01:31;100090.88;;;1.98;72.63
64679;BME280;51094;53.864;27.676;2024-02-15T03:04:00;100015.13;;;1.45;72.32
64679;BME280;51094;53.864;27.676;2024-02-15T03:06:28;100022.91;;;1.41;72.18
64679;BME280;51094;53.864;27.676;2024-02-15T03:09:00;100055.31;;;1.43;72.74
64679;BME280;51094;53.864;27.676;2024-02-15T03:11:33;99965.34;;;0.77;72.37
64679;BME280;51094;53.864;27.676;2024-02-15T03:14:02;100111.41;;;1.58;72.84
64679;BME280;51094;53.864;27.676;2024-02-15T03:16:32;100097.47;;;0.85;72.35
64679;BME280;51094;53.864;27.676;2024-02-15T03:19:00;100069.06;;;1.39;72.97
64679;BME280;51094;53.864;27.676;2024-02-15T03:21:29;100057.34;;;1.29;72.88
64679;BME280;51094;53.864;27.676;2024-02-15T03:23:56;100065.56;;;1.43;73.23
64679;BME280;51094;53.864;27.676;2024-02-15T03:26:32;100054.69;;;1.32;73.08
64679;BME280;51094;53.864;27.676;2024-02-15T03:29:07;100113.69;;;1.72;73.25
64679;BME280;51094;53.864;27.676;2024-02-15T03:31:42;100118.88;;;1.69;72.47
64679;BME280;51094;53.864;27.676;2024-02-15T03:34:09;100107.13;;;1.59;73.09
64679;BME280;51094;53.864;27.676;2024-02-15T03:36:38;100116.19;;;1.74;73.42
64679;BME280;51094;53.864;27.676;2024-02-15T03:39:10;100112.69;;;1.78;73.30
64679;BME280;51094;53.864;27.676;2024-02-15T03:41:37;100108.41;;;1.78;72.91
64679;BME280;51094;53.864;27.676;2024-02-15T03:44:04;100102.47;;;1.76;73.19
64679;BME280;51094;53.864;27.676;2024-02-15T03:46:31;100099.84;;;1.79;73.54
64679;BME280;51094;53.864;27.676;2024-02-15T03:48:59;100117.56;;;1.90;73.15
64679;BME280;51094;53.864;27.676;2024-02-15T03:51:26;100125.38;;;1.84;72.34
64679;BME280;51094;53.864;27.676;2024-02-15T03:53:53;100114.28;;;1.83;73.12
64679;BME280;51094;53.864;27.676;2024-02-15T03:56:20;100132.97;;;1.88;73.10
64679;BME280;51094;53.864;27.676;2024-02-15T03:58:48;100112.38;;;1.53;72.95
64679;BME280;51094;53.864;27.676;2024-02-15T04:01:20;100119.69;;;1.71;72.93
64679;BME280;51094;53.864;27.676;2024-02-15T04:03:47;100135.00;;;1.74;72.93
64679;BME280;51094;53.864;27.676;2024-02-15T04:06:15;100123.38;;;1.58;72.73
64679;BME280;51094;53.864;27.676;2024-02-15T04:08:42;100140.22;;;1.71;73.35
64679;BME280;51094;53.864;27.676;2024-02-15T04:11:09;100132.38;;;1.76;72.78
64679;BME280;51094;53.864;27.676;2024-02-15T04:13:37;100078.41;;;1.42;73.18
64679;BME280;51094;53.864;27.676;2024-02-15T04:16:04;100138.19;;;1.85;73.74
64679;BME280;51094;53.864;27.676;2024-02-15T04:18:34;99949.09;;;0.78;73.06
64679;BME280;51094;53.864;27.676;2024-02-15T04:21:01;100128.69;;;1.89;73.22
64679;BME280;51094;53.864;27.676;2024-02-15T04:23:29;100125.16;;;1.94;73.08
64679;BME280;51094;53.864;27.676;2024-02-15T04:25:56;100135.22;;;2.04;72.95
64679;BME280;51094;53.864;27.676;2024-02-15T04:28:23;100087.25;;;1.70;72.14
64679;BME280;51094;53.864;27.676;2024-02-15T04:30:52;100138.13;;;1.88;73.20
64679;BME280;51094;53.864;27.676;2024-02-15T04:33:22;100137.16;;;1.92;72.03
64679;BME280;51094;53.864;27.676;2024-02-15T04:35:49;100030.03;;;1.28;72.65
64679;BME280;51094;53.864;27.676;2024-02-15T04:38:23;100110.03;;;1.82;72.79
64679;BME280;51094;53.864;27.676;2024-02-15T04:40:54;100127.91;;;1.85;73.13
64679;BME280;51094;53.864;27.676;2024-02-15T04:43:22;100141.97;;;2.08;73.25
64679;BME280;51094;53.864;27.676;2024-02-15T04:45:52;100132.59;;;2.07;72.83
64679;BME280;51094;53.864;27.676;2024-02-15T04:48:19;100140.28;;;2.07;72.62
64679;BME280;51094;53.864;27.676;2024-02-15T04:50:46;100101.44;;;1.85;72.76
64679;BME280;51094;53.864;27.676;2024-02-15T04:53:14;99981.66;;;1.14;72.69
64679;BME280;51094;53.864;27.676;2024-02-15T04:55:42;100061.75;;;1.62;72.62
64679;BME280;51094;53.864;27.676;2024-02-15T04:58:09;100139.50;;;2.03;72.62
64679;BME280;51094;53.864;27.676;2024-02-15T05:00:37;100140.34;;;2.04;72.92
64679;BME280;51094;53.864;27.676;2024-02-15T05:03:04;100101.03;;;1.64;71.96
64679;BME280;51094;53.864;27.676;2024-02-15T05:05:34;100140.50;;;1.97;72.31
64679;BME280;51094;53.864;27.676;2024-02-15T05:08:02;100126.00;;;1.95;72.49
64679;BME280;51094;53.864;27.676;2024-02-15T05:10:30;100122.47;;;2.00;72.94
64679;BME280;51094;53.864;27.676;2024-02-15T05:12:57;100138.50;;;2.10;72.09
64679;BME280;51094;53.864;27.676;2024-02-15T05:15:27;100126.81;;;1.97;72.17
64679;BME280;51094;53.864;27.676;2024-02-15T05:17:55;100145.75;;;1.91;71.95
64679;BME280;51094;53.864;27.676;2024-02-15T05:20:22;100107.81;;;1.67;72.48
64679;BME280;51094;53.864;27.676;2024-02-15T05:23:10;100112.91;;;1.69;72.55
64679;BME280;51094;53.864;27.676;2024-02-15T05:25:39;100125.28;;;1.88;72.69
64679;BME280;51094;53.864;27.676;2024-02-15T05:28:06;100135.38;;;1.96;72.96
64679;BME280;51094;53.864;27.676;2024-02-15T05:30:34;100151.44;;;2.06;72.46
64679;BME280;51094;53.864;27.676;2024-02-15T05:33:03;100078.94;;;1.59;72.48
64679;BME280;51094;53.864;27.676;2024-02-15T05:35:31;100154.81;;;2.08;72.65
64679;BME280;51094;53.864;27.676;2024-02-15T05:38:00;100140.34;;;2.04;73.07
64679;BME280;51094;53.864;27.676;2024-02-15T05:40:30;100109.91;;;1.88;72.17
64679;BME280;51094;53.864;27.676;2024-02-15T05:43:01;100159.72;;;2.17;72.61
64679;BME280;51094;53.864;27.676;2024-02-15T05:45:29;100093.19;;;1.72;72.50
64679;BME280;51094;53.864;27.676;2024-02-15T05:48:00;100143.16;;;1.93;71.77
64679;BME280;51094;53.864;27.676;2024-02-15T05:50:27;100168.59;;;2.02;72.17
64679;BME280;51094;53.864;27.676;2024-02-15T05:52:58;100176.16;;;2.10;72.52
64679;BME280;51094;53.864;27.676;2024-02-15T05:55:26;100178.78;;;2.07;71.40
64679;BME280;51094;53.864;27.676;2024-02-15T05:57:55;100174.84;;;1.90;71.53
64679;BME280;51094;53.864;27.676;2024-02-15T06:00:23;100161.25;;;1.85;71.89
64679;BME280;51094;53.864;27.676;2024-02-15T06:02:50;100125.72;;;1.69;72.57
64679;BME280;51094;53.864;27.676;2024-02-15T06:05:22;100168.97;;;2.24;72.29
64679;BME280;51094;53.864;27.676;2024-02-15T06:07:51;100128.28;;;2.09;72.21
64679;BME280;51094;53.864;27.676;2024-02-15T06:10:18;100155.06;;;2.34;72.11
64679;BME280;51094;53.864;27.676;2024-02-15T06:12:45;100143.09;;;2.33;72.29
64679;BME280;51094;53.864;27.676;2024-02-15T06:15:12;100184.50;;;2.56;72.45
64679;BME280;51094;53.864;27.676;2024-02-15T06:17:44;100166.69;;;2.49;71.75
64679;BME280;51094;53.864;27.676;2024-02-15T06:20:16;100180.16;;;2.58;71.95
64679;BME280;51094;53.864;27.676;2024-02-15T06:22:47;100186.91;;;2.62;71.72
64679;BME280;51094;53.864;27.676;2024-02-15T06:25:17;100191.88;;;2.68;71.99
64679;BME280;51094;53.864;27.676;2024-02-15T06:27:49;100168.38;;;2.50;71.38
64679;BME280;51094;53.864;27.676;2024-02-15T06:30:18;100182.56;;;2.64;70.90
64679;BME280;51094;53.864;27.676;2024-02-15T06:33:04;100199.50;;;2.73;71.04
64679;BME280;51094;53.864;27.676;2024-02-15T06:35:49;100194.50;;;2.67;71.04
64679;BME280;51094;53.864;27.676;2024-02-15T06:38:35;100179.94;;;2.67;71.34
64679;BME280;51094;53.864;27.676;2024-02-15T06:41:23;100204.38;;;2.84;70.83
64679;BME280;51094;53.864;27.676;2024-02-15T06:43:53;100185.00;;;2.71;70.38
64679;BME280;51094;53.864;27.676;2024-02-15T06:46:20;100171.81;;;2.50;70.09
64679;BME280;51094;53.864;27.676;2024-02-15T06:48:48;100175.91;;;2.57;70.63
64679;BME280;51094;53.864;27.676;2024-02-15T06:51:15;100195.28;;;2.71;70.34
64679;BME280;51094;53.864;27.676;2024-02-15T06:53:43;100208.00;;;2.75;70.52
64679;BME280;51094;53.864;27.676;2024-02-15T06:56:10;100206.03;;;2.86;70.27
64679;BME280;51094;53.864;27.676;2024-02-15T06:58:39;100162.09;;;2.61;69.62
64679;BME280;51094;53.864;27.676;2024-02-15T07:01:10;100204.53;;;2.78;69.67
64679;BME280;51094;53.864;27.676;2024-02-15T07:03:40;100212.09;;;2.84;69.94
64679;BME280;51094;53.864;27.676;2024-02-15T07:06:07;100196.66;;;2.84;68.77
64679;BME280;51094;53.864;27.676;2024-02-15T07:08:34;100211.38;;;2.77;68.48
64679;BME280;51094;53.864;27.676;2024-02-15T07:11:07;100141.63;;;2.23;69.34
64679;BME280;51094;53.864;27.676;2024-02-15T07:13:36;100213.91;;;2.79;69.28
64679;BME280;51094;53.864;27.676;2024-02-15T07:16:10;100181.69;;;2.65;68.83
64679;BME280;51094;53.864;27.676;2024-02-15T07:18:38;100214.69;;;2.82;69.01
64679;BME280;51094;53.864;27.676;2024-02-15T07:21:06;100222.63;;;2.72;68.92
64679;BME280;51094;53.864;27.676;2024-02-15T07:23:38;100224.25;;;2.76;68.08
64679;BME280;51094;53.864;27.676;2024-02-15T07:26:07;100216.13;;;2.58;68.49
64679;BME280;51094;53.864;27.676;2024-02-15T07:28:34;100184.94;;;2.37;68.93
64679;BME280;51094;53.864;27.676;2024-02-15T07:31:02;100206.75;;;2.56;68.83
64679;BME280;51094;53.864;27.676;2024-02-15T07:33:29;100204.81;;;2.65;69.08
64679;BME280;51094;53.864;27.676;2024-02-15T07:35:59;100225.88;;;2.80;69.14
64679;BME280;51094;53.864;27.676;2024-02-15T07:38:33;100227.50;;;2.84;68.12
64679;BME280;51094;53.864;27.676;2024-02-15T07:41:01;100229.25;;;2.82;68.50
64679;BME280;51094;53.864;27.676;2024-02-15T07:43:29;100230.66;;;2.95;67.93
64679;BME280;51094;53.864;27.676;2024-02-15T07:45:58;100232.19;;;3.02;67.92
64679;BME280;51094;53.864;27.676;2024-02-15T07:48:35;100209.13;;;3.00;68.25
64679;BME280;51094;53.864;27.676;2024-02-15T07:51:05;100213.00;;;3.15;68.29
64679;BME280;51094;53.864;27.676;2024-02-15T07:53:39;100221.38;;;3.23;67.51
64679;BME280;51094;53.864;27.676;2024-02-15T07:56:07;100229.84;;;3.27;67.63
64679;BME280;51094;53.864;27.676;2024-02-15T07:58:49;100222.38;;;3.18;67.47
64679;BME280;51094;53.864;27.676;2024-02-15T08:01:20;100190.72;;;2.82;67.05
64679;BME280;51094;53.864;27.676;2024-02-15T08:03:52;100171.19;;;2.75;66.29
64679;BME280;51094;53.864;27.676;2024-02-15T08:06:22;100236.41;;;3.05;66.67
64679;BME280;51094;53.864;27.676;2024-02-15T08:08:55;100243.09;;;3.10;65.56
64679;BME280;51094;53.864;27.676;2024-02-15T08:11:23;100256.72;;;3.14;65.88
64679;BME280;51094;53.864;27.676;2024-02-15T08:13:54;100240.47;;;3.13;65.59
64679;BME280;51094;53.864;27.676;2024-02-15T08:16:26;100219.34;;;3.02;65.99
64679;BME280;51094;53.864;27.676;2024-02-15T08:18:58;100198.19;;;2.92;65.97
64679;BME280;51094;53.864;27.676;2024-02-15T08:21:31;100218.75;;;2.91;65.83
64679;BME280;51094;53.864;27.676;2024-02-15T08:24:04;100106.66;;;2.17;66.00
64679;BME280;51094;53.864;27.676;2024-02-15T08:26:33;100250.91;;;3.07;66.61
64679;BME280;51094;53.864;27.676;2024-02-15T08:29:05;100211.78;;;2.96;65.72
64679;BME280;51094;53.864;27.676;2024-02-15T08:31:41;100247.19;;;3.19;65.53
64679;BME280;51094;53.864;27.676;2024-02-15T08:34:10;100237.84;;;3.15;66.24
64679;BME280;51094;53.864;27.676;2024-02-15T08:36:44;100252.94;;;3.28;65.71
64679;BME280;51094;53.864;27.676;2024-02-15T08:39:11;100231.88;;;3.14;65.50
64679;BME280;51094;53.864;27.676;2024-02-15T08:41:46;100254.75;;;3.25;65.48
64679;BME280;51094;53.864;27.676;2024-02-15T08:44:13;100243.69;;;3.21;65.56
64679;BME280;51094;53.864;27.676;2024-02-15T08:46:43;100255.59;;;3.25;65.59
64679;BME280;51094;53.864;27.676;2024-02-15T08:49:10;100253.94;;;3.23;64.45
64679;BME280;51094;53.864;27.676;2024-02-15T08:51:40;100253.28;;;3.15;64.60
64679;BME280;51094;53.864;27.676;2024-02-15T08:54:08;100263.72;;;3.09;65.19
64679;BME280;51094;53.864;27.676;2024-02-15T08:56:36;100216.56;;;2.76;63.23
64679;BME280;51094;53.864;27.676;2024-02-15T08:59:08;100269.09;;;2.99;64.94
64679;BME280;51094;53.864;27.676;2024-02-15T09:01:35;100273.13;;;3.08;65.30
64679;BME280;51094;53.864;27.676;2024-02-15T09:04:06;100271.44;;;3.07;65.13
64679;BME280;51094;53.864;27.676;2024-02-15T09:06:35;100257.94;;;3.00;65.66
64679;BME280;51094;53.864;27.676;2024-02-15T09:09:05;100226.09;;;2.71;64.58
64679;BME280;51094;53.864;27.676;2024-02-15T09:11:36;100274.38;;;2.93;64.84
64679;BME280;51094;53.864;27.676;2024-02-15T09:14:05;100264.38;;;2.81;65.19
64679;BME280;51094;53.864;27.676;2024-02-15T09:16:35;100276.13;;;2.91;65.72
64679;BME280;51094;53.864;27.676;2024-02-15T09:19:05;100284.97;;;3.15;64.52
64679;BME280;51094;53.864;27.676;2024-02-15T09:21:33;100269.69;;;3.09;64.99
64679;BME280;51094;53.864;27.676;2024-02-15T09:24:00;100154.06;;;2.40;65.16
64679;BME280;51094;53.864;27.676;2024-02-15T09:26:30;100284.97;;;3.15;65.46
64679;BME280;51094;53.864;27.676;2024-02-15T09:28:57;100282.25;;;3.21;64.87
64679;BME280;51094;53.864;27.676;2024-02-15T09:31:24;100270.31;;;3.19;65.25
64679;BME280;51094;53.864;27.676;2024-02-15T09:33:51;100283.84;;;3.27;65.44
64679;BME280;51094;53.864;27.676;2024-02-15T09:36:21;100282.16;;;3.26;65.32
64679;BME280;51094;53.864;27.676;2024-02-15T09:38:49;100207.88;;;2.81;65.18
64679;BME280;51094;53.864;27.676;2024-02-15T09:41:16;100283.94;;;3.22;65.40
64679;BME280;51094;53.864;27.676;2024-02-15T09:43:43;100239.09;;;3.00;65.67
64679;BME280;51094;53.864;27.676;2024-02-15T09:46:12;100277.63;;;3.36;64.89
64679;BME280;51094;53.864;27.676;2024-02-15T09:48:50;100276.25;;;3.21;64.33
64679;BME280;51094;53.864;27.676;2024-02-15T09:51:18;100270.38;;;3.16;64.99
64679;BME280;51094;53.864;27.676;2024-02-15T09:53:47;100132.91;;;2.30;65.04
64679;BME280;51094;53.864;27.676;2024-02-15T09:56:15;100278.69;;;3.27;65.34
64679;BME280;51094;53.864;27.676;2024-02-15T09:58:44;100267.50;;;3.29;64.99
64679;BME280;51094;53.864;27.676;2024-02-15T10:01:14;100241.91;;;3.25;64.81
64679;BME280;51094;53.864;27.676;2024-02-15T10:03:42;100273.97;;;3.44;63.47
64679;BME280;51094;53.864;27.676;2024-02-15T10:06:09;100260.66;;;3.28;64.09
64679;BME280;51094;53.864;27.676;2024-02-15T10:08:37;100271.22;;;3.50;64.94
64679;BME280;51094;53.864;27.676;2024-02-15T10:11:08;100270.22;;;3.56;64.05
64679;BME280;51094;53.864;27.676;2024-02-15T10:13:37;100212.13;;;3.16;63.57
64679;BME280;51094;53.864;27.676;2024-02-15T10:16:24;100126.53;;;2.46;63.98
64679;BME280;51094;53.864;27.676;2024-02-15T10:19:08;100278.44;;;3.38;63.71
64679;BME280;51094;53.864;27.676;2024-02-15T10:21:35;100275.34;;;3.23;64.06
64679;BME280;51094;53.864;27.676;2024-02-15T10:24:06;100276.03;;;3.30;64.31
64679;BME280;51094;53.864;27.676;2024-02-15T10:26:39;100289.63;;;3.35;64.40
64679;BME280;51094;53.864;27.676;2024-02-15T10:29:11;100271.66;;;3.33;64.44
64679;BME280;51094;53.864;27.676;2024-02-15T10:31:39;100266.41;;;3.38;65.09
64679;BME280;51094;53.864;27.676;2024-02-15T10:34:16;100266.38;;;3.40;64.44
64679;BME280;51094;53.864;27.676;2024-02-15T10:36:48;100269.03;;;3.37;64.56
64679;BME280;51094;53.864;27.676;2024-02-15T10:39:17;100271.59;;;3.37;65.50
64679;BME280;51094;53.864;27.676;2024-02-15T10:41:53;100250.31;;;3.31;65.09
64679;BME280;51094;53.864;27.676;2024-02-15T10:44:23;100202.56;;;3.21;65.09
64679;BME280;51094;53.864;27.676;2024-02-15T10:46:52;100285.81;;;3.50;64.49
64679;BME280;51094;53.864;27.676;2024-02-15T10:49:25;100240.28;;;3.21;64.20
64679;BME280;51094;53.864;27.676;2024-02-15T10:51:57;100251.47;;;3.18;63.84
64679;BME280;51094;53.864;27.676;2024-02-15T10:54:47;100276.53;;;3.10;64.56
64679;BME280;51094;53.864;27.676;2024-02-15T10:57:21;100269.06;;;3.01;64.42
64679;BME280;51094;53.864;27.676;2024-02-15T10:59:58;100268.34;;;2.94;63.87
64679;BME280;51094;53.864;27.676;2024-02-15T11:02:34;100303.72;;;2.83;63.58
64679;BME280;51094;53.864;27.676;2024-02-15T11:05:08;100254.72;;;2.91;64.48
64679;BME280;51094;53.864;27.676;2024-02-15T11:07:39;100255.53;;;2.93;64.49
64679;BME280;51094;53.864;27.676;2024-02-15T11:10:08;100086.13;;;1.80;65.14
64679;BME280;51094;53.864;27.676;2024-02-15T11:12:38;100253.13;;;3.21;64.88
64679;BME280;51094;53.864;27.676;2024-02-15T11:15:08;100209.16;;;2.99;63.96
64679;BME280;51094;53.864;27.676;2024-02-15T11:23:01;100249.34;;;3.02;63.77
64679;BME280;51094;53.864;27.676;2024-02-15T11:25:35;100223.97;;;2.88;64.14
64679;BME280;51094;53.864;27.676;2024-02-15T11:30:57;100245.66;;;3.12;64.28
64679;BME280;51094;53.864;27.676;2024-02-15T11:33:34;100239.69;;;3.10;64.05
64679;BME280;51094;53.864;27.676;2024-02-15T11:36:07;100237.22;;;3.05;63.87
64679;BME280;51094;53.864;27.676;2024-02-15T11:38:39;100236.31;;;3.08;64.13
64679;BME280;51094;53.864;27.676;2024-02-15T11:41:16;100229.16;;;3.20;63.84
64679;BME280;51094;53.864;27.676;2024-02-15T11:43:50;100205.44;;;3.09;64.60
64679;BME280;51094;53.864;27.676;2024-02-15T11:46:28;100198.09;;;3.29;64.34
64679;BME280;51094;53.864;27.676;2024-02-15T11:49:00;100237.72;;;3.53;64.21
64679;BME280;51094;53.864;27.676;2024-02-15T11:51:33;100237.88;;;3.47;64.16
64679;BME280;51094;53.864;27.676;2024-02-15T11:54:10;100233.84;;;3.39;63.44
64679;BME280;51094;53.864;27.676;2024-02-15T11:59:25;100177.06;;;2.80;64.12
64679;BME280;51094;53.864;27.676;2024-02-15T12:02:23;100221.66;;;3.11;63.92
64679;BME280;51094;53.864;27.676;2024-02-15T12:05:22;100236.63;;;3.29;64.31
64679;BME280;51094;53.864;27.676;2024-02-15T12:08:10;100238.19;;;3.03;64.57
64679;BME280;51094;53.864;27.676;2024-02-15T12:11:01;100243.41;;;3.33;63.99
64679;BME280;51094;53.864;27.676;2024-02-15T12:13:52;100250.44;;;3.25;63.51
64679;BME280;51094;53.864;27.676;2024-02-15T12:16:40;100253.63;;;3.01;63.35
64679;BME280;51094;53.864;27.676;2024-02-15T12:19:31;100255.16;;;3.08;64.14
64679;BME280;51094;53.864;27.676;2024-02-15T12:22:03;100250.75;;;3.13;64.23
64679;BME280;51094;53.864;27.676;2024-02-15T12:24:33;100214.75;;;2.79;62.73
64679;BME280;51094;53.864;27.676;2024-02-15T12:27:01;100239.72;;;2.73;63.48
64679;BME280;51094;53.864;27.676;2024-02-15T12:29:32;100225.03;;;2.42;64.34
64679;BME280;51094;53.864;27.676;2024-02-15T12:32:02;100244.06;;;2.71;64.78
64679;BME280;51094;53.864;27.676;2024-02-15T12:34:32;100254.88;;;2.85;64.77
64679;BME280;51094;53.864;27.676;2024-02-15T12:37:06;100234.44;;;2.80;65.06
64679;BME280;51094;53.864;27.676;2024-02-15T12:39:36;100208.53;;;2.54;63.40
64679;BME280;51094;53.864;27.676;2024-02-15T12:42:11;100235.03;;;2.54;64.19
64679;BME280;51094;53.864;27.676;2024-02-15T12:44:46;100273.94;;;2.75;64.99
64679;BME280;51094;53.864;27.676;2024-02-15T12:47:25;100260.44;;;2.65;64.77
64679;BME280;51094;53.864;27.676;2024-02-15T12:49:58;100247.13;;;2.49;65.30
64679;BME280;51094;53.864;27.676;2024-02-15T12:52:39;100248.03;;;2.47;65.37
64679;BME280;51094;53.864;27.676;2024-02-15T12:55:17;100266.53;;;2.61;65.65
64679;BME280;51094;53.864;27.676;2024-02-15T12:57:50;100257.84;;;2.66;65.83
64679;BME280;51094;53.864;27.676;2024-02-15T13:00:19;100230.66;;;2.59;65.79
64679;BME280;51094;53.864;27.676;2024-02-15T13:02:50;100274.56;;;2.84;64.80
64679;BME280;51094;53.864;27.676;2024-02-15T13:05:18;100229.97;;;2.51;64.33
64679;BME280;51094;53.864;27.676;2024-02-15T13:07:50;100258.09;;;2.57;65.17
64679;BME280;51094;53.864;27.676;2024-02-15T13:10:17;100252.25;;;2.49;65.11
64679;BME280;51094;53.864;27.676;2024-02-15T13:12:45;100194.84;;;2.15;64.61
64679;BME280;51094;53.864;27.676;2024-02-15T13:15:14;100261.09;;;2.36;64.86
64679;BME280;51094;53.864;27.676;2024-02-15T13:17:46;100230.69;;;2.18;65.69
64679;BME280;51094;53.864;27.676;2024-02-15T13:20:17;100249.75;;;2.46;65.39